sensor_id;sensor_type;location;lat;lon;timestamp;temperature;humidity
9425;DHT22;17139;52.140;11.636;2024-02-21T00:01:50;7.60;64.90
9425;DHT22;17139;52.140;11.636;2024-02-21T00:04:16;7.60;64.90
9425;DHT22;17139;52.140;11.636;2024-02-21T00:06:42;7.60;64.90
9425;DHT22;17139;52.140;11.636;2024-02-21T00:09:09;7.60;64.90
9425;DHT22;17139;52.140;11.636;2024-02-21T00:11:35;7.70;65.00
9425;DHT22;17139;52.140;11.636;2024-02-21T00:14:01;7.60;64.90
9425;DHT22;17139;52.140;11.636;2024-02-21T00:16:26;7.70;64.90
9425;DHT22;17139;52.140;11.636;2024-02-21T00:18:52;7.70;64.90
9425;DHT22;17139;52.140;11.636;2024-02-21T00:21:18;7.70;64.90
9425;DHT22;17139;52.140;11.636;2024-02-21T00:23:44;7.70;65.00
9425;DHT22;17139;52.140;11.636;2024-02-21T00:26:11;7.60;65.00
9425;DHT22;17139;52.140;11.636;2024-02-21T00:28:37;7.60;65.10
9425;DHT22;17139;52.140;11.636;2024-02-21T00:31:03;7.60;65.20
9425;DHT22;17139;52.140;11.636;2024-02-21T00:33:29;7.60;65.40
9425;DHT22;17139;52.140;11.636;2024-02-21T00:35:55;7.50;65.30
9425;DHT22;17139;52.140;11.636;2024-02-21T00:38:20;7.50;65.40
9425;DHT22;17139;52.140;11.636;2024-02-21T00:40:46;7.50;65.50
9425;DHT22;17139;52.140;11.636;2024-02-21T00:43:14;7.40;65.50
9425;DHT22;17139;52.140;11.636;2024-02-21T00:45:39;7.90;65.20
9425;DHT22;17139;52.140;11.636;2024-02-21T00:48:06;7.80;64.70
9425;DHT22;17139;52.140;11.636;2024-02-21T00:50:31;7.70;65.10
9425;DHT22;17139;52.140;11.636;2024-02-21T00:52:57;7.60;65.40
9425;DHT22;17139;52.140;11.636;2024-02-21T00:55:23;7.60;65.50
9425;DHT22;17139;52.140;11.636;2024-02-21T00:57:49;7.50;65.60
9425;DHT22;17139;52.140;11.636;2024-02-21T01:00:17;7.50;65.70
9425;DHT22;17139;52.140;11.636;2024-02-21T01:02:43;7.50;65.80
9425;DHT22;17139;52.140;11.636;2024-02-21T01:05:09;7.50;65.80
9425;DHT22;17139;52.140;11.636;2024-02-21T01:07:35;7.50;65.80
9425;DHT22;17139;52.140;11.636;2024-02-21T01:10:00;7.50;65.90
9425;DHT22;17139;52.140;11.636;2024-02-21T01:12:26;7.50;66.00
9425;DHT22;17139;52.140;11.636;2024-02-21T01:14:52;7.50;66.10
9425;DHT22;17139;52.140;11.636;2024-02-21T01:17:19;7.50;66.10
9425;DHT22;17139;52.140;11.636;2024-02-21T01:19:46;7.60;66.20
9425;DHT22;17139;52.140;11.636;2024-02-21T01:22:12;7.60;66.10
9425;DHT22;17139;52.140;11.636;2024-02-21T01:24:37;7.60;66.80
9425;DHT22;17139;52.140;11.636;2024-02-21T01:27:04;8.50;65.50
9425;DHT22;17139;52.140;11.636;2024-02-21T01:29:29;8.30;64.90
9425;DHT22;17139;52.140;11.636;2024-02-21T01:31:55;8.00;65.20
9425;DHT22;17139;52.140;11.636;2024-02-21T01:34:22;8.60;65.40
9425;DHT22;17139;52.140;11.636;2024-02-21T01:36:48;8.40;64.90
9425;DHT22;17139;52.140;11.636;2024-02-21T01:39:14;8.10;65.30
9425;DHT22;17139;52.140;11.636;2024-02-21T01:41:40;8.00;65.70
9425;DHT22;17139;52.140;11.636;2024-02-21T01:44:06;7.90;65.90
9425;DHT22;17139;52.140;11.636;2024-02-21T01:46:31;7.80;66.10
9425;DHT22;17139;52.140;11.636;2024-02-21T01:48:57;7.80;66.10
9425;DHT22;17139;52.140;11.636;2024-02-21T01:51:25;7.80;66.30
9425;DHT22;17139;52.140;11.636;2024-02-21T01:53:51;7.80;66.50
9425;DHT22;17139;52.140;11.636;2024-02-21T01:56:18;7.80;66.50
9425;DHT22;17139;52.140;11.636;2024-02-21T01:58:46;7.80;66.50
9425;DHT22;17139;52.140;11.636;2024-02-21T02:01:13;7.80;66.60
9425;DHT22;17139;52.140;11.636;2024-02-21T02:03:38;7.70;66.50
9425;DHT22;17139;52.140;11.636;2024-02-21T02:06:05;7.60;67.10
9425;DHT22;17139;52.140;11.636;2024-02-21T02:08:33;7.60;66.50
9425;DHT22;17139;52.140;11.636;2024-02-21T02:10:59;7.60;66.60
9425;DHT22;17139;52.140;11.636;2024-02-21T02:13:25;8.10;66.60
9425;DHT22;17139;52.140;11.636;2024-02-21T02:15:51;7.90;65.80
9425;DHT22;17139;52.140;11.636;2024-02-21T02:18:19;7.80;66.00
9425;DHT22;17139;52.140;11.636;2024-02-21T02:20:45;7.90;66.40
9425;DHT22;17139;52.140;11.636;2024-02-21T02:23:18;7.90;66.00
9425;DHT22;17139;52.140;11.636;2024-02-21T02:25:45;7.70;66.10
9425;DHT22;17139;52.140;11.636;2024-02-21T02:28:11;7.70;66.50
9425;DHT22;17139;52.140;11.636;2024-02-21T02:30:37;7.60;66.50
9425;DHT22;17139;52.140;11.636;2024-02-21T02:33:03;7.60;66.60
9425;DHT22;17139;52.140;11.636;2024-02-21T02:35:29;7.60;66.70
9425;DHT22;17139;52.140;11.636;2024-02-21T02:37:55;7.60;66.70
9425;DHT22;17139;52.140;11.636;2024-02-21T02:40:22;7.60;66.70
9425;DHT22;17139;52.140;11.636;2024-02-21T02:42:48;7.50;66.60
9425;DHT22;17139;52.140;11.636;2024-02-21T02:45:14;7.50;66.70
9425;DHT22;17139;52.140;11.636;2024-02-21T02:47:40;7.40;66.70
9425;DHT22;17139;52.140;11.636;2024-02-21T02:50:07;7.40;66.70
9425;DHT22;17139;52.140;11.636;2024-02-21T02:52:33;7.40;66.70
9425;DHT22;17139;52.140;11.636;2024-02-21T02:54:59;7.40;66.70
9425;DHT22;17139;52.140;11.636;2024-02-21T02:57:26;7.40;66.80
9425;DHT22;17139;52.140;11.636;2024-02-21T02:59:52;7.60;67.00
9425;DHT22;17139;52.140;11.636;2024-02-21T03:02:18;7.60;66.50
9425;DHT22;17139;52.140;11.636;2024-02-21T03:04:44;7.50;66.60
9425;DHT22;17139;52.140;11.636;2024-02-21T03:07:10;7.40;66.70
9425;DHT22;17139;52.140;11.636;2024-02-21T03:09:36;8.30;66.10
9425;DHT22;17139;52.140;11.636;2024-02-21T03:12:02;8.00;65.40
9425;DHT22;17139;52.140;11.636;2024-02-21T03:14:29;7.80;65.90
9425;DHT22;17139;52.140;11.636;2024-02-21T03:16:55;7.70;66.30
9425;DHT22;17139;52.140;11.636;2024-02-21T03:19:21;7.60;66.50
9425;DHT22;17139;52.140;11.636;2024-02-21T03:21:47;7.50;66.60
9425;DHT22;17139;52.140;11.636;2024-02-21T03:24:13;7.40;66.70
9425;DHT22;17139;52.140;11.636;2024-02-21T03:26:38;7.40;66.80
9425;DHT22;17139;52.140;11.636;2024-02-21T03:29:04;7.40;66.90
9425;DHT22;17139;52.140;11.636;2024-02-21T03:31:31;7.40;66.90
9425;DHT22;17139;52.140;11.636;2024-02-21T03:33:57;7.40;66.90
9425;DHT22;17139;52.140;11.636;2024-02-21T03:36:23;7.40;66.90
9425;DHT22;17139;52.140;11.636;2024-02-21T03:38:49;7.50;66.90
9425;DHT22;17139;52.140;11.636;2024-02-21T03:41:14;7.50;67.00
9425;DHT22;17139;52.140;11.636;2024-02-21T03:43:40;7.50;66.90
9425;DHT22;17139;52.140;11.636;2024-02-21T03:46:07;7.50;66.90
9425;DHT22;17139;52.140;11.636;2024-02-21T03:48:34;8.30;66.00
9425;DHT22;17139;52.140;11.636;2024-02-21T03:51:00;8.10;65.50
9425;DHT22;17139;52.140;11.636;2024-02-21T03:53:25;7.80;66.00
9425;DHT22;17139;52.140;11.636;2024-02-21T03:55:51;8.40;66.00
9425;DHT22;17139;52.140;11.636;2024-02-21T03:58:17;8.10;65.50
9425;DHT22;17139;52.140;11.636;2024-02-21T04:00:43;7.90;66.00
9425;DHT22;17139;52.140;11.636;2024-02-21T04:03:08;7.80;66.50
9425;DHT22;17139;52.140;11.636;2024-02-21T04:05:36;7.70;66.70
9425;DHT22;17139;52.140;11.636;2024-02-21T04:08:04;7.60;66.80
9425;DHT22;17139;52.140;11.636;2024-02-21T04:10:30;7.60;67.00
9425;DHT22;17139;52.140;11.636;2024-02-21T04:12:55;7.50;67.00
9425;DHT22;17139;52.140;11.636;2024-02-21T04:15:21;7.50;67.00
9425;DHT22;17139;52.140;11.636;2024-02-21T04:17:47;7.50;67.10
9425;DHT22;17139;52.140;11.636;2024-02-21T04:20:14;7.50;67.10
9425;DHT22;17139;52.140;11.636;2024-02-21T04:22:42;7.40;67.10
9425;DHT22;17139;52.140;11.636;2024-02-21T04:25:08;7.50;67.20
9425;DHT22;17139;52.140;11.636;2024-02-21T04:27:34;7.40;67.00
9425;DHT22;17139;52.140;11.636;2024-02-21T04:30:00;7.50;67.10
9425;DHT22;17139;52.140;11.636;2024-02-21T04:32:26;7.40;67.00
9425;DHT22;17139;52.140;11.636;2024-02-21T04:34:52;7.70;67.10
9425;DHT22;17139;52.140;11.636;2024-02-21T04:37:17;7.60;66.50
9425;DHT22;17139;52.140;11.636;2024-02-21T04:39:45;7.50;66.60
9425;DHT22;17139;52.140;11.636;2024-02-21T04:42:10;7.50;66.90
9425;DHT22;17139;52.140;11.636;2024-02-21T04:44:36;7.40;66.90
9425;DHT22;17139;52.140;11.636;2024-02-21T04:47:02;7.40;67.00
9425;DHT22;17139;52.140;11.636;2024-02-21T04:49:28;7.40;67.10
9425;DHT22;17139;52.140;11.636;2024-02-21T04:51:53;7.40;67.10
9425;DHT22;17139;52.140;11.636;2024-02-21T04:54:19;7.40;67.10
9425;DHT22;17139;52.140;11.636;2024-02-21T04:56:46;7.30;67.00
9425;DHT22;17139;52.140;11.636;2024-02-21T04:59:12;7.30;67.00
9425;DHT22;17139;52.140;11.636;2024-02-21T05:01:38;7.30;67.00
9425;DHT22;17139;52.140;11.636;2024-02-21T05:04:04;7.20;67.00
9425;DHT22;17139;52.140;11.636;2024-02-21T05:06:30;7.20;67.20
9425;DHT22;17139;52.140;11.636;2024-02-21T05:08:56;7.20;67.40
9425;DHT22;17139;52.140;11.636;2024-02-21T05:11:21;7.20;67.40
9425;DHT22;17139;52.140;11.636;2024-02-21T05:13:49;7.20;67.40
9425;DHT22;17139;52.140;11.636;2024-02-21T05:16:15;7.20;67.40
9425;DHT22;17139;52.140;11.636;2024-02-21T05:18:41;7.70;66.40
9425;DHT22;17139;52.140;11.636;2024-02-21T05:21:07;7.60;65.90
9425;DHT22;17139;52.140;11.636;2024-02-21T05:23:32;7.50;66.20
9425;DHT22;17139;52.140;11.636;2024-02-21T05:25:58;7.70;66.20
9425;DHT22;17139;52.140;11.636;2024-02-21T05:28:24;7.70;66.00
9425;DHT22;17139;52.140;11.636;2024-02-21T05:30:51;7.60;66.20
9425;DHT22;17139;52.140;11.636;2024-02-21T05:33:17;7.50;67.10
9425;DHT22;17139;52.140;11.636;2024-02-21T05:35:43;7.50;66.60
9425;DHT22;17139;52.140;11.636;2024-02-21T05:38:10;7.40;66.50
9425;DHT22;17139;52.140;11.636;2024-02-21T05:40:35;7.40;66.70
9425;DHT22;17139;52.140;11.636;2024-02-21T05:43:01;7.30;66.70
9425;DHT22;17139;52.140;11.636;2024-02-21T05:45:27;7.20;66.80
9425;DHT22;17139;52.140;11.636;2024-02-21T05:47:54;7.90;65.80
9425;DHT22;17139;52.140;11.636;2024-02-21T05:50:20;8.10;65.10
9425;DHT22;17139;52.140;11.636;2024-02-21T05:52:46;7.90;65.20
9425;DHT22;17139;52.140;11.636;2024-02-21T05:55:12;7.90;65.40
9425;DHT22;17139;52.140;11.636;2024-02-21T05:57:37;7.80;65.50
9425;DHT22;17139;52.140;11.636;2024-02-21T06:00:05;7.70;65.90
9425;DHT22;17139;52.140;11.636;2024-02-21T06:02:31;7.60;66.10
9425;DHT22;17139;52.140;11.636;2024-02-21T06:04:58;7.60;66.30
9425;DHT22;17139;52.140;11.636;2024-02-21T06:07:24;7.60;66.40
9425;DHT22;17139;52.140;11.636;2024-02-21T06:09:50;7.60;66.50
9425;DHT22;17139;52.140;11.636;2024-02-21T06:12:15;7.60;66.50
9425;DHT22;17139;52.140;11.636;2024-02-21T06:14:41;7.80;66.30
9425;DHT22;17139;52.140;11.636;2024-02-21T06:17:07;7.80;66.00
9425;DHT22;17139;52.140;11.636;2024-02-21T06:19:33;7.80;66.20
9425;DHT22;17139;52.140;11.636;2024-02-21T06:22:00;7.70;66.20
9425;DHT22;17139;52.140;11.636;2024-02-21T06:24:26;7.70;66.40
9425;DHT22;17139;52.140;11.636;2024-02-21T06:26:52;7.70;66.40
9425;DHT22;17139;52.140;11.636;2024-02-21T06:29:17;7.70;66.50
9425;DHT22;17139;52.140;11.636;2024-02-21T06:31:43;7.70;66.50
9425;DHT22;17139;52.140;11.636;2024-02-21T06:34:09;7.70;66.50
9425;DHT22;17139;52.140;11.636;2024-02-21T06:36:35;7.90;65.70
9425;DHT22;17139;52.140;11.636;2024-02-21T06:39:02;8.00;65.50
9425;DHT22;17139;52.140;11.636;2024-02-21T06:41:28;7.90;65.70
9425;DHT22;17139;52.140;11.636;2024-02-21T06:43:53;8.20;65.00
9425;DHT22;17139;52.140;11.636;2024-02-21T06:46:26;8.10;64.90
9425;DHT22;17139;52.140;11.636;2024-02-21T06:48:52;8.00;65.40
9425;DHT22;17139;52.140;11.636;2024-02-21T06:51:18;7.90;65.70
9425;DHT22;17139;52.140;11.636;2024-02-21T06:53:44;7.80;65.80
9425;DHT22;17139;52.140;11.636;2024-02-21T06:56:11;7.70;65.80
9425;DHT22;17139;52.140;11.636;2024-02-21T06:58:37;7.70;65.90
9425;DHT22;17139;52.140;11.636;2024-02-21T07:01:03;7.50;65.90
9425;DHT22;17139;52.140;11.636;2024-02-21T07:03:28;7.50;66.10
9425;DHT22;17139;52.140;11.636;2024-02-21T07:05:54;7.40;66.30
9425;DHT22;17139;52.140;11.636;2024-02-21T07:08:20;7.40;66.30
9425;DHT22;17139;52.140;11.636;2024-02-21T07:10:46;7.40;66.40
9425;DHT22;17139;52.140;11.636;2024-02-21T07:13:13;7.40;66.40
9425;DHT22;17139;52.140;11.636;2024-02-21T07:15:39;7.40;66.40
9425;DHT22;17139;52.140;11.636;2024-02-21T07:18:05;7.70;65.70
9425;DHT22;17139;52.140;11.636;2024-02-21T07:20:30;7.70;65.40
9425;DHT22;17139;52.140;11.636;2024-02-21T07:22:56;7.70;65.50
9425;DHT22;17139;52.140;11.636;2024-02-21T07:25:22;7.80;65.60
9425;DHT22;17139;52.140;11.636;2024-02-21T07:27:48;7.70;65.50
9425;DHT22;17139;52.140;11.636;2024-02-21T07:30:15;7.80;65.60
9425;DHT22;17139;52.140;11.636;2024-02-21T07:32:41;7.80;65.60
9425;DHT22;17139;52.140;11.636;2024-02-21T07:35:07;7.80;65.70
9425;DHT22;17139;52.140;11.636;2024-02-21T07:37:33;7.80;65.60
9425;DHT22;17139;52.140;11.636;2024-02-21T07:39:59;7.90;65.70
9425;DHT22;17139;52.140;11.636;2024-02-21T07:42:25;7.90;65.70
9425;DHT22;17139;52.140;11.636;2024-02-21T07:44:51;7.90;65.70
9425;DHT22;17139;52.140;11.636;2024-02-21T07:47:18;8.00;65.70
9425;DHT22;17139;52.140;11.636;2024-02-21T07:49:44;8.00;65.60
9425;DHT22;17139;52.140;11.636;2024-02-21T07:52:10;8.10;65.70
9425;DHT22;17139;52.140;11.636;2024-02-21T07:54:36;8.10;65.50
9425;DHT22;17139;52.140;11.636;2024-02-21T07:57:02;8.20;65.60
9425;DHT22;17139;52.140;11.636;2024-02-21T07:59:28;8.20;65.40
9425;DHT22;17139;52.140;11.636;2024-02-21T08:01:56;8.70;63.80
9425;DHT22;17139;52.140;11.636;2024-02-21T08:04:24;8.60;64.00
9425;DHT22;17139;52.140;11.636;2024-02-21T08:06:51;8.50;64.50
9425;DHT22;17139;52.140;11.636;2024-02-21T08:09:17;8.90;63.40
9425;DHT22;17139;52.140;11.636;2024-02-21T08:11:43;8.70;63.70
9425;DHT22;17139;52.140;11.636;2024-02-21T08:14:09;8.70;64.50
9425;DHT22;17139;52.140;11.636;2024-02-21T08:16:34;8.60;64.70
9425;DHT22;17139;52.140;11.636;2024-02-21T08:19:00;8.70;65.00
9425;DHT22;17139;52.140;11.636;2024-02-21T08:21:27;8.70;64.90
9425;DHT22;17139;52.140;11.636;2024-02-21T08:23:54;8.70;64.80
9425;DHT22;17139;52.140;11.636;2024-02-21T08:26:20;8.70;64.80
9425;DHT22;17139;52.140;11.636;2024-02-21T08:28:46;8.80;64.40
9425;DHT22;17139;52.140;11.636;2024-02-21T08:31:18;8.90;64.40
9425;DHT22;17139;52.140;11.636;2024-02-21T08:33:44;8.90;64.50
9425;DHT22;17139;52.140;11.636;2024-02-21T08:36:17;8.80;64.70
9425;DHT22;17139;52.140;11.636;2024-02-21T08:38:44;8.80;64.80
9425;DHT22;17139;52.140;11.636;2024-02-21T08:41:10;8.80;65.00
9425;DHT22;17139;52.140;11.636;2024-02-21T08:43:36;9.40;63.50
9425;DHT22;17139;52.140;11.636;2024-02-21T08:46:02;9.20;63.10
9425;DHT22;17139;52.140;11.636;2024-02-21T08:48:28;9.10;64.00
9425;DHT22;17139;52.140;11.636;2024-02-21T08:50:53;9.50;62.40
9425;DHT22;17139;52.140;11.636;2024-02-21T08:53:19;9.40;63.10
9425;DHT22;17139;52.140;11.636;2024-02-21T08:55:46;9.30;63.70
9425;DHT22;17139;52.140;11.636;2024-02-21T08:58:14;9.30;63.90
9425;DHT22;17139;52.140;11.636;2024-02-21T09:00:40;9.30;64.10
9425;DHT22;17139;52.140;11.636;2024-02-21T09:03:06;9.40;64.30
9425;DHT22;17139;52.140;11.636;2024-02-21T09:05:31;9.40;64.20
9425;DHT22;17139;52.140;11.636;2024-02-21T09:07:57;9.50;64.20
9425;DHT22;17139;52.140;11.636;2024-02-21T09:10:23;9.50;64.30
9425;DHT22;17139;52.140;11.636;2024-02-21T09:12:50;9.40;64.10
9425;DHT22;17139;52.140;11.636;2024-02-21T09:15:16;9.30;64.20
9425;DHT22;17139;52.140;11.636;2024-02-21T09:17:42;9.30;64.40
9425;DHT22;17139;52.140;11.636;2024-02-21T09:20:08;9.20;64.40
9425;DHT22;17139;52.140;11.636;2024-02-21T09:22:34;9.20;64.40
9425;DHT22;17139;52.140;11.636;2024-02-21T09:25:00;9.40;63.70
9425;DHT22;17139;52.140;11.636;2024-02-21T09:27:26;9.40;63.90
9425;DHT22;17139;52.140;11.636;2024-02-21T09:29:53;9.40;64.10
9425;DHT22;17139;52.140;11.636;2024-02-21T09:32:19;9.50;64.10
9425;DHT22;17139;52.140;11.636;2024-02-21T09:34:45;9.60;64.30
9425;DHT22;17139;52.140;11.636;2024-02-21T09:37:10;9.70;64.20
9425;DHT22;17139;52.140;11.636;2024-02-21T09:39:36;9.80;63.70
9425;DHT22;17139;52.140;11.636;2024-02-21T09:42:06;9.80;63.50
9425;DHT22;17139;52.140;11.636;2024-02-21T09:44:36;9.90;63.60
9425;DHT22;17139;52.140;11.636;2024-02-21T09:47:07;10.00;64.00
9425;DHT22;17139;52.140;11.636;2024-02-21T09:49:35;10.00;63.70
9425;DHT22;17139;52.140;11.636;2024-02-21T09:52:02;9.90;63.60
9425;DHT22;17139;52.140;11.636;2024-02-21T09:54:28;9.90;63.60
9425;DHT22;17139;52.140;11.636;2024-02-21T09:56:54;9.80;63.80
9425;DHT22;17139;52.140;11.636;2024-02-21T09:59:20;9.80;64.20
9425;DHT22;17139;52.140;11.636;2024-02-21T10:01:46;9.80;64.20
9425;DHT22;17139;52.140;11.636;2024-02-21T10:04:13;9.80;64.20
9425;DHT22;17139;52.140;11.636;2024-02-21T10:06:39;9.90;64.10
9425;DHT22;17139;52.140;11.636;2024-02-21T10:09:06;10.70;61.00
9425;DHT22;17139;52.140;11.636;2024-02-21T10:11:32;10.70;62.00
9425;DHT22;17139;52.140;11.636;2024-02-21T10:14:05;10.50;62.60
9425;DHT22;17139;52.140;11.636;2024-02-21T10:16:31;10.90;61.30
9425;DHT22;17139;52.140;11.636;2024-02-21T10:18:56;10.70;62.00
9425;DHT22;17139;52.140;11.636;2024-02-21T10:21:24;10.60;62.60
9425;DHT22;17139;52.140;11.636;2024-02-21T10:23:50;10.40;63.00
9425;DHT22;17139;52.140;11.636;2024-02-21T10:26:18;10.30;63.20
9425;DHT22;17139;52.140;11.636;2024-02-21T10:28:44;10.20;63.40
9425;DHT22;17139;52.140;11.636;2024-02-21T10:31:11;10.10;63.70
9425;DHT22;17139;52.140;11.636;2024-02-21T10:33:38;10.40;62.20
9425;DHT22;17139;52.140;11.636;2024-02-21T10:36:07;10.40;62.60
9425;DHT22;17139;52.140;11.636;2024-02-21T10:38:35;10.40;63.10
9425;DHT22;17139;52.140;11.636;2024-02-21T10:41:03;10.50;63.20
9425;DHT22;17139;52.140;11.636;2024-02-21T10:43:31;10.50;63.20
9425;DHT22;17139;52.140;11.636;2024-02-21T10:46:00;10.60;63.10
9425;DHT22;17139;52.140;11.636;2024-02-21T10:48:31;10.60;62.90
9425;DHT22;17139;52.140;11.636;2024-02-21T10:51:03;10.60;63.10
9425;DHT22;17139;52.140;11.636;2024-02-21T10:53:41;11.10;60.30
9425;DHT22;17139;52.140;11.636;2024-02-21T10:56:16;10.90;61.20
9425;DHT22;17139;52.140;11.636;2024-02-21T10:58:46;10.80;61.70
9425;DHT22;17139;52.140;11.636;2024-02-21T11:01:13;11.30;58.50
9425;DHT22;17139;52.140;11.636;2024-02-21T11:03:40;11.10;60.00
9425;DHT22;17139;52.140;11.636;2024-02-21T11:06:07;10.90;61.20
9425;DHT22;17139;52.140;11.636;2024-02-21T11:08:34;10.70;61.70
9425;DHT22;17139;52.140;11.636;2024-02-21T11:11:02;10.50;62.10
9425;DHT22;17139;52.140;11.636;2024-02-21T11:13:31;10.40;62.30
9425;DHT22;17139;52.140;11.636;2024-02-21T11:16:06;10.40;62.60
9425;DHT22;17139;52.140;11.636;2024-02-21T11:18:32;10.40;62.60
9425;DHT22;17139;52.140;11.636;2024-02-21T11:20:58;10.30;62.30
9425;DHT22;17139;52.140;11.636;2024-02-21T11:23:25;10.30;62.50
9425;DHT22;17139;52.140;11.636;2024-02-21T11:25:51;10.30;62.30
9425;DHT22;17139;52.140;11.636;2024-02-21T11:28:25;10.20;62.30
9425;DHT22;17139;52.140;11.636;2024-02-21T11:30:51;10.20;62.10
9425;DHT22;17139;52.140;11.636;2024-02-21T11:33:17;10.20;62.00
9425;DHT22;17139;52.140;11.636;2024-02-21T11:35:43;10.40;60.20
9425;DHT22;17139;52.140;11.636;2024-02-21T11:38:10;10.30;61.00
9425;DHT22;17139;52.140;11.636;2024-02-21T11:40:38;10.20;61.60
9425;DHT22;17139;52.140;11.636;2024-02-21T11:43:04;10.20;61.00
9425;DHT22;17139;52.140;11.636;2024-02-21T11:45:31;10.10;61.00
9425;DHT22;17139;52.140;11.636;2024-02-21T11:47:57;10.10;61.40
9425;DHT22;17139;52.140;11.636;2024-02-21T11:50:23;10.00;61.60
9425;DHT22;17139;52.140;11.636;2024-02-21T11:52:49;10.00;61.60
9425;DHT22;17139;52.140;11.636;2024-02-21T11:55:15;10.00;62.50
9425;DHT22;17139;52.140;11.636;2024-02-21T11:57:40;10.00;61.80
9425;DHT22;17139;52.140;11.636;2024-02-21T12:00:14;10.10;62.10
9425;DHT22;17139;52.140;11.636;2024-02-21T12:02:42;10.20;62.10
9425;DHT22;17139;52.140;11.636;2024-02-21T12:05:08;10.10;62.10
9425;DHT22;17139;52.140;11.636;2024-02-21T12:07:36;10.10;61.80
9425;DHT22;17139;52.140;11.636;2024-02-21T12:10:02;10.10;61.80
9425;DHT22;17139;52.140;11.636;2024-02-21T12:12:28;10.10;62.00
9425;DHT22;17139;52.140;11.636;2024-02-21T12:14:56;10.10;62.10
9425;DHT22;17139;52.140;11.636;2024-02-21T12:17:21;10.10;62.00
9425;DHT22;17139;52.140;11.636;2024-02-21T12:19:50;10.20;61.30
9425;DHT22;17139;52.140;11.636;2024-02-21T12:22:17;10.20;61.60
9425;DHT22;17139;52.140;11.636;2024-02-21T12:24:43;10.30;61.80
9425;DHT22;17139;52.140;11.636;2024-02-21T12:27:09;10.40;61.70
9425;DHT22;17139;52.140;11.636;2024-02-21T12:29:35;10.40;61.60
9425;DHT22;17139;52.140;11.636;2024-02-21T12:32:00;10.50;61.40
9425;DHT22;17139;52.140;11.636;2024-02-21T12:34:26;10.60;61.40
9425;DHT22;17139;52.140;11.636;2024-02-21T12:36:53;10.70;61.40
9425;DHT22;17139;52.140;11.636;2024-02-21T12:39:19;10.90;61.20
9425;DHT22;17139;52.140;11.636;2024-02-21T12:41:45;11.00;61.20
9425;DHT22;17139;52.140;11.636;2024-02-21T12:44:11;11.00;60.90
9425;DHT22;17139;52.140;11.636;2024-02-21T12:46:37;10.90;60.60
9425;DHT22;17139;52.140;11.636;2024-02-21T12:49:03;10.90;61.20
9425;DHT22;17139;52.140;11.636;2024-02-21T12:51:29;10.80;61.10
9425;DHT22;17139;52.140;11.636;2024-02-21T12:53:57;10.80;61.20
9425;DHT22;17139;52.140;11.636;2024-02-21T12:56:23;10.90;61.20
9425;DHT22;17139;52.140;11.636;2024-02-21T12:58:49;10.90;61.20
9425;DHT22;17139;52.140;11.636;2024-02-21T13:01:14;11.00;61.30
9425;DHT22;17139;52.140;11.636;2024-02-21T13:03:40;11.10;61.40
9425;DHT22;17139;52.140;11.636;2024-02-21T13:06:06;11.10;61.30
9425;DHT22;17139;52.140;11.636;2024-02-21T13:08:32;11.30;61.30
9425;DHT22;17139;52.140;11.636;2024-02-21T13:10:59;11.30;61.00
9425;DHT22;17139;52.140;11.636;2024-02-21T13:13:25;11.90;57.50
9425;DHT22;17139;52.140;11.636;2024-02-21T13:15:51;11.70;58.90
9425;DHT22;17139;52.140;11.636;2024-02-21T13:18:17;11.50;59.60
9425;DHT22;17139;52.140;11.636;2024-02-21T13:20:43;11.40;60.20
9425;DHT22;17139;52.140;11.636;2024-02-21T13:23:08;11.30;60.20
9425;DHT22;17139;52.140;11.636;2024-02-21T13:25:34;11.20;59.90
9425;DHT22;17139;52.140;11.636;2024-02-21T13:28:01;11.10;60.40
9425;DHT22;17139;52.140;11.636;2024-02-21T13:30:27;11.00;60.60
9425;DHT22;17139;52.140;11.636;2024-02-21T13:32:53;11.80;57.00
9425;DHT22;17139;52.140;11.636;2024-02-21T13:35:19;11.60;58.50
9425;DHT22;17139;52.140;11.636;2024-02-21T13:37:45;11.40;59.10
9425;DHT22;17139;52.140;11.636;2024-02-21T13:40:11;11.40;59.60
9425;DHT22;17139;52.140;11.636;2024-02-21T13:42:37;11.30;60.00
9425;DHT22;17139;52.140;11.636;2024-02-21T13:45:05;11.30;60.20
9425;DHT22;17139;52.140;11.636;2024-02-21T13:47:31;11.30;60.00
9425;DHT22;17139;52.140;11.636;2024-02-21T13:49:57;12.00;56.30
9425;DHT22;17139;52.140;11.636;2024-02-21T13:52:23;11.90;58.10
9425;DHT22;17139;52.140;11.636;2024-02-21T13:54:49;11.70;58.90
9425;DHT22;17139;52.140;11.636;2024-02-21T13:57:15;11.70;58.70
9425;DHT22;17139;52.140;11.636;2024-02-21T13:59:41;11.60;59.00
9425;DHT22;17139;52.140;11.636;2024-02-21T14:02:08;11.50;59.40
9425;DHT22;17139;52.140;11.636;2024-02-21T14:04:34;11.50;58.40
9425;DHT22;17139;52.140;11.636;2024-02-21T14:07:00;11.50;59.10
9425;DHT22;17139;52.140;11.636;2024-02-21T14:09:26;11.40;59.30
9425;DHT22;17139;52.140;11.636;2024-02-21T14:11:51;11.20;59.50
9425;DHT22;17139;52.140;11.636;2024-02-21T14:14:29;11.10;59.60
9425;DHT22;17139;52.140;11.636;2024-02-21T14:16:55;11.10;59.80
9425;DHT22;17139;52.140;11.636;2024-02-21T14:19:22;11.50;57.50
9425;DHT22;17139;52.140;11.636;2024-02-21T14:21:48;11.30;58.50
9425;DHT22;17139;52.140;11.636;2024-02-21T14:24:14;11.20;59.20
9425;DHT22;17139;52.140;11.636;2024-02-21T14:26:40;11.00;59.50
9425;DHT22;17139;52.140;11.636;2024-02-21T14:29:05;11.10;59.00
9425;DHT22;17139;52.140;11.636;2024-02-21T14:31:31;11.00;59.40
9425;DHT22;17139;52.140;11.636;2024-02-21T14:33:57;11.00;59.80
9425;DHT22;17139;52.140;11.636;2024-02-21T14:36:25;11.00;59.10
9425;DHT22;17139;52.140;11.636;2024-02-21T14:38:51;11.00;59.40
9425;DHT22;17139;52.140;11.636;2024-02-21T14:41:18;10.90;59.60
9425;DHT22;17139;52.140;11.636;2024-02-21T14:43:44;10.90;59.90
9425;DHT22;17139;52.140;11.636;2024-02-21T14:46:09;10.80;59.90
9425;DHT22;17139;52.140;11.636;2024-02-21T14:48:35;10.80;60.00
9425;DHT22;17139;52.140;11.636;2024-02-21T14:51:01;10.80;60.10
9425;DHT22;17139;52.140;11.636;2024-02-21T14:53:29;10.80;60.20
9425;DHT22;17139;52.140;11.636;2024-02-21T14:55:55;10.70;60.10
9425;DHT22;17139;52.140;11.636;2024-02-21T14:58:21;10.70;60.20
9425;DHT22;17139;52.140;11.636;2024-02-21T15:00:46;10.60;60.20
9425;DHT22;17139;52.140;11.636;2024-02-21T15:03:12;10.70;60.40
9425;DHT22;17139;52.140;11.636;2024-02-21T15:05:38;10.60;60.30
9425;DHT22;17139;52.140;11.636;2024-02-21T15:08:04;10.60;60.30
9425;DHT22;17139;52.140;11.636;2024-02-21T15:10:32;10.60;60.40
9425;DHT22;17139;52.140;11.636;2024-02-21T15:12:57;11.00;58.10
9425;DHT22;17139;52.140;11.636;2024-02-21T15:15:23;10.90;58.90
9425;DHT22;17139;52.140;11.636;2024-02-21T15:17:49;10.70;59.50
9425;DHT22;17139;52.140;11.636;2024-02-21T15:20:15;11.00;57.50
9425;DHT22;17139;52.140;11.636;2024-02-21T15:22:41;10.90;58.60
9425;DHT22;17139;52.140;11.636;2024-02-21T15:25:08;10.70;59.30
9425;DHT22;17139;52.140;11.636;2024-02-21T15:27:35;10.60;59.70
9425;DHT22;17139;52.140;11.636;2024-02-21T15:30:02;10.50;60.10
9425;DHT22;17139;52.140;11.636;2024-02-21T15:32:28;10.40;60.40
9425;DHT22;17139;52.140;11.636;2024-02-21T15:34:53;10.40;60.70